WetterOnline ( https://www.wetteronline.de )

Wetter aktuell Nidda

Aktuelles Wetter: Gießen (195m)

6-stündlich | Neueste Meldungen
Ortszeit Temperatur Wetter
Di, 27.10. 7:00 6.5° C bewölkt
Di, 27.10. 1:00 6.5° C bewölkt
Mo, 26.10. 19:00 8.1° C bedeckt
Mo, 26.10. 13:00 10.6° C -
Mo, 26.10. 7:00 9.9° C Sprühregen
Mo, 26.10. 1:00 10.4° C leichter Regen
So, 25.10. 19:00 11.9° C leichter Regen
So, 25.10. 13:00 15.2° C leicht bewölkt
Ortszeit Temperatur Wetter
Di, 27.10. 8:00 7.2° C bedeckt
Di, 27.10. 7:50 7.2° C bedeckt
Di, 27.10. 7:40 7.0° C bedeckt
Di, 27.10. 7:30 6.8° C bewölkt
Di, 27.10. 7:20 6.8° C bewölkt
Di, 27.10. 7:10 6.7° C bewölkt
Di, 27.10. 7:00 6.5° C bewölkt
Di, 27.10. 6:30 6.5° C wolkig
Di, 27.10. 6:00 6.2° C wolkig
Di, 27.10. 5:30 6.7° C bedeckt
Di, 27.10. 5:00 6.5° C bewölkt
Ortszeit Relative Feuchte Sichtweite
Di, 27.10. 7:00 93% 11 km
Di, 27.10. 1:00 93% 15 km
Mo, 26.10. 19:00 79% 45 km
Mo, 26.10. 13:00 77% 55 km
Mo, 26.10. 7:00 94% 7 km
Mo, 26.10. 1:00 92% 29 km
So, 25.10. 19:00 89% 29 km
So, 25.10. 13:00 63% 45 km
Ortszeit Relative Feuchte Sichtweite
Di, 27.10. 8:00 89% 26 km
Di, 27.10. 7:50 89% -
Di, 27.10. 7:40 89% -
Di, 27.10. 7:30 91% 19 km
Di, 27.10. 7:20 91% -
Di, 27.10. 7:10 91% -
Di, 27.10. 7:00 93% 11 km
Di, 27.10. 6:30 92% 13 km
Di, 27.10. 6:00 92% 12 km
Di, 27.10. 5:30 91% 18 km
Di, 27.10. 5:00 91% 23 km
Ortszeit Niederschlagsmenge Niederschlagsart
Di, 27.10. 7:00 0.0 l/m2 in 12 Std. -
Di, 27.10. 1:00 0.0 l/m2 in 6 Std. -
Mo, 26.10. 19:00 0.7 l/m2 in 12 Std. -
Mo, 26.10. 13:00 0.7 l/m2 in 6 Std. Regen
Mo, 26.10. 7:00 3 l/m2 in 12 Std. Regen
Mo, 26.10. 1:00 0.7 l/m2 in 6 Std. Regen
So, 25.10. 19:00 2 l/m2 in 12 Std. Regen
So, 25.10. 13:00 0.0 l/m2 in 6 Std. -
Ortszeit Niederschlagsmenge Niederschlagsart
Di, 27.10. 8:00 0.0 l/m2 in 1 Std. -
Di, 27.10. 7:50 keine Meldung -
Di, 27.10. 7:40 keine Meldung -
Di, 27.10. 7:30 0.0 l/m2 in 1 Std. -
Di, 27.10. 7:20 keine Meldung -
Di, 27.10. 7:10 keine Meldung -
Di, 27.10. 7:00 0.0 l/m2 in 1 Std. -
Di, 27.10. 6:30 0.0 l/m2 in 1 Std. -
Di, 27.10. 6:00 0.0 l/m2 in 1 Std. -
Di, 27.10. 5:30 0.0 l/m2 in 1 Std. -
Di, 27.10. 5:00 0.0 l/m2 in 1 Std. -
Ortszeit Stärke Spitze Richtung
km/h Bft. km/h Grad Sektor
Di, 27.10. 7:00 9 2 22 180° S
Di, 27.10. 1:00 7 2 13 130° SO
Mo, 26.10. 19:00 7 2 40 120° SO
Mo, 26.10. 13:00 18 3 29 210° SW
Mo, 26.10. 7:00 7 2 18 170° S
Mo, 26.10. 1:00 7 2 18 170° S
So, 25.10. 19:00 13 3 31 200° S
So, 25.10. 13:00 25 4 40 160° S
Ortszeit Stärke Spitze Richtung
km/h Bft. km/h Grad Sektor
Di, 27.10. 8:00 15 3 22 170° S
Di, 27.10. 7:50 15 3 - 170° S
Di, 27.10. 7:40 14 3 - 160° S
Di, 27.10. 7:30 11 2 18 160° S
Di, 27.10. 7:20 11 2 - 160° S
Di, 27.10. 7:10 11 2 - 160° S
Di, 27.10. 7:00 9 2 15 180° S
Di, 27.10. 6:30 9 2 13 160° S
Di, 27.10. 6:00 7 2 18 170° S
Di, 27.10. 5:30 7 2 18 170° S
Di, 27.10. 5:00 11 2 18 180° S
Ortszeit Untergrenze Bedeckung Gattung
total tief tief mittel hoch
Di, 27.10. 7:00 540 m 7/8 7/8 - - -
Di, 27.10. 1:00 1500 m 7/8 7/8 - - -
Mo, 26.10. 19:00 5700 m 8/8 8/8 - - -
Mo, 26.10. 13:00 - - - - - -
Mo, 26.10. 7:00 - - - - - -
Mo, 26.10. 1:00 1380 m 8/8 8/8 - - -
So, 25.10. 19:00 1800 m 7/8 6/8 - - -
So, 25.10. 13:00 1050 m 3/8 3/8 - - -
Ortszeit Bedeckungsgrad in Achtel und Wolkenuntergrenze
Di, 27.10. 8:00 7(660m) 8(840m)
Di, 27.10. 7:50 7(660m) 8(840m)
Di, 27.10. 7:40 6(600m) 8(780m)
Di, 27.10. 7:30 4(540m) 7(810m)
Di, 27.10. 7:20 4(540m) 7(810m)
Di, 27.10. 7:10 2(540m) 7(780m)
Di, 27.10. 7:00 5(540m) 7(780m) 7(1380m)
Di, 27.10. 6:30 5(600m) 6(930m) 6(1380m)
Di, 27.10. 6:00 6(870m) 4(1380m)
Di, 27.10. 5:30 1(540m) 8(810m)
Di, 27.10. 5:00 6(690m) 7(870m) 7(870m)
Ortszeit Luftdruck NN (hPa) Tendenz (hPa in 3 Std.)
Di, 27.10. 7:00 1008 + 0,9
Di, 27.10. 1:00 1007 + 0,2
Mo, 26.10. 19:00 1006 + 0,9
Mo, 26.10. 13:00 1004 + 0,2
Mo, 26.10. 7:00 1002 - 1,3
Mo, 26.10. 1:00 1004 - 1,1
So, 25.10. 19:00 1005 + 0,2
So, 25.10. 13:00 1006 - 2,0
Ortszeit Luftdruck NN (hPa) Tendenz (hPa in 3 Std.)
Di, 27.10. 8:00 1009 + 1,4
Di, 27.10. 7:50 1009 keine Meldung
Di, 27.10. 7:40 1009 keine Meldung
Di, 27.10. 7:30 1009 + 1,3
Di, 27.10. 7:20 1009 keine Meldung
Di, 27.10. 7:10 1009 keine Meldung
Di, 27.10. 7:00 1008 + 0,9
Di, 27.10. 6:30 1008 + 0,6
Di, 27.10. 6:00 1008 + 0,6
Di, 27.10. 5:30 1008 + 0,3
Di, 27.10. 5:00 1008 + 0,1
Ortszeit Schneehöhe (cm)
Di, 27.10. 7:00 0
Di, 27.10. 1:00 0
Mo, 26.10. 19:00 0
Mo, 26.10. 13:00 0
Mo, 26.10. 7:00 0
Mo, 26.10. 1:00 0
So, 25.10. 19:00 0
So, 25.10. 13:00 0
Ortszeit Schneehöhe (cm)
Di, 27.10. 8:00 0
Di, 27.10. 7:50 0
Di, 27.10. 7:40 0
Di, 27.10. 7:30 0
Di, 27.10. 7:20 0
Di, 27.10. 7:10 0
Di, 27.10. 7:00 0
Di, 27.10. 6:30 0
Di, 27.10. 6:00 0
Di, 27.10. 5:30 0
Di, 27.10. 5:00 0
Link zu dieser Seite / Seite empfehlen

Das Wetter in ...